Time;durP1;ratioP1;P1;durP2;ratioP2;P2;SDS_P1;SDS_P2;PMS_P1;PMS_P2;Temp;Humidity;BMP_temperature;BMP_pressure;BME280_temperature;BME280_humidity;BME280_pressure;Samples;Min_cycle;Max_cycle;Signal;HPM_P1;HPM_P2
2022/03/23 00:04:45;;;;;;;10.70;7.60;;;12.50;38.70;;;13.02;32.52;99904.97;4963844;28;124896;-76
2022/03/23 00:10:54;;;;;;;10.57;7.37;;;11.20;37.90;;;12.95;32.74;99897.06;4964094;28;110084;-75
2022/03/23 04:03:18;;;;;;;13.67;9.17;;;9.00;43.30;;;9.53;36.36;99944.88;6030291;23;98709;31
2022/03/23 04:09:27;;;;;;;11.70;8.90;;;8.00;42.70;;;9.52;36.70;99937.72;4906121;28;124801;-75
2022/03/23 05:58:30;;;;;;;12.83;9.30;;;7.20;44.10;;;8.97;37.95;99980.69;4942502;28;124823;-81
2022/03/23 06:04:39;;;;;;;19.10;12.90;;;8.40;45.60;;;8.93;38.45;99991.47;4926772;28;110051;-76
2022/03/23 06:10:49;;;;;;;15.47;11.13;;;7.70;45.60;;;8.77;38.54;99985.06;4926451;28;124700;-76
2022/03/23 06:33:45;;;;;;;19.33;9.63;;;8.30;46.90;;;9.15;38.93;99993.97;5462855;23;98554;-84
2022/03/23 06:36:12;;;;;;;20.50;12.10;;;7.30;46.30;;;9.22;38.85;100004.75;4945036;28;109774;-90
2022/03/23 06:42:20;;;;;;;20.50;13.30;;;7.00;46.10;;;9.14;38.87;99999.78;4964289;28;125381;-84
2022/03/23 06:48:29;;;;;;;15.80;11.20;;;6.70;45.50;;;9.21;38.47;100014.09;4964216;28;111251;-84
2022/03/23 06:54:37;;;;;;;15.37;10.60;;;7.00;45.50;;;9.48;38.51;100019.38;4964014;28;125038;-78
2022/03/23 07:00:46;;;;;;;19.87;12.07;;;7.10;45.40;;;9.58;38.23;100022.13;4964651;28;110163;-80
2022/03/23 07:06:55;;;;;;;18.60;12.77;;;9.50;47.30;;;9.60;38.65;100033.72;4943972;28;124451;-86
2022/03/23 07:13:04;;;;;;;16.67;10.90;;;7.20;45.20;;;9.74;38.38;100043.09;4944315;28;110328;-88
2022/03/23 07:19:14;;;;;;;14.33;10.43;;;7.40;45.20;;;9.94;38.26;100038.69;4954203;28;125143;-84
2022/03/23 07:21:41;;;;;;;14.67;10.37;;;8.80;46.30;;;10.02;37.89;100035.38;4962719;28;124498;-79
2022/03/23 07:25:05;;;;;;;13.30;10.13;;;9.20;46.50;;;10.16;37.85;100046.66;4944543;28;109732;-78
2022/03/23 07:33:59;;;;;;;17.47;10.80;;;9.60;46.50;;;10.44;37.59;100049.94;6027943;23;99315;31
2022/03/23 07:36:28;;;;;;;13.67;10.07;;;9.70;46.50;;;10.54;37.83;100047.97;4883929;28;108519;-91
2022/03/23 07:42:37;;;;;;;17.70;11.53;;;9.30;45.90;;;10.64;37.44;100046.25;4886434;28;125245;-93
2022/03/23 07:45:23;;;;;;;16.40;11.67;;;8.30;45.00;;;10.69;37.36;100044.31;4869239;28;123395;-81
2022/03/23 07:51:32;;;;;;;18.87;12.37;;;8.90;45.30;;;10.82;37.16;100056.69;4886996;28;111059;-91
2022/03/23 07:57:40;;;;;;;18.23;12.67;;;8.70;45.20;;;10.98;37.36;100041.69;4885722;28;124670;-86
2022/03/23 08:00:27;;;;;;;19.93;13.13;;;10.00;45.00;;;11.02;37.47;100048.31;4888738;28;108960;-81
2022/03/23 08:07:14;;;;;;;17.17;12.70;;;9.80;45.60;;;11.20;37.12;100048.75;4905115;28;125130;-80
2022/03/23 08:10:00;;;;;;;17.93;11.93;;;9.90;45.50;;;11.35;37.11;100051.44;4888701;28;123211;-86
2022/03/23 08:16:09;;;;;;;13.50;9.87;;;10.00;44.30;;;11.61;36.28;100048.50;4886446;28;111079;-86
2022/03/23 08:23:16;;;;;;;17.43;11.37;;;10.70;44.50;;;11.84;36.34;100046.91;4884013;28;124971;-92
2022/03/23 08:26:09;;;;;;;16.33;10.80;;;10.20;43.80;;;11.94;36.26;100039.38;4885369;28;109693;-84
2022/03/23 08:29:34;;;;;;;20.83;11.33;;;11.10;44.40;;;12.06;35.74;100039.00;4882956;29;110979;-92
2022/03/23 08:32:03;;;;;;;15.87;11.00;;;11.10;44.20;;;12.14;35.69;100040.28;4885603;28;124743;-79
2022/03/23 08:34:30;;;;;;;17.77;12.00;;;10.10;42.90;;;12.21;35.96;100031.66;4886543;28;123692;-91
2022/03/23 08:37:34;;;;;;;18.30;11.67;;;11.30;44.10;;;12.28;35.57;100035.72;4901484;28;109923;-91
2022/03/23 08:43:43;;;;;;;14.77;10.50;;;10.70;42.90;;;12.45;35.59;100040.81;4904375;28;125303;-90
2022/03/23 08:49:51;;;;;;;16.30;11.50;;;10.40;42.50;;;12.62;35.49;100036.72;4903376;28;111108;-92
2022/03/23 08:52:37;;;;;;;15.20;11.37;;;11.60;43.90;;;12.72;35.05;100034.66;4903282;28;110538;-94
2022/03/23 08:55:10;;;;;;;17.60;12.93;;;11.70;43.50;;;12.82;35.17;100039.25;4900727;28;123657;-94
2022/03/23 08:58:15;;;;;;;17.77;12.40;;;12.00;43.80;;;12.86;35.16;100033.94;4902775;28;124432;-80
2022/03/23 09:00:42;;;;;;;12.70;9.97;;;11.90;43.40;;;12.94;35.06;100030.50;4884005;28;109963;-93
2022/03/23 09:03:47;;;;;;;17.93;11.90;;;12.10;43.40;;;12.99;34.82;100035.97;4899202;28;110814;-94
2022/03/23 09:09:55;;;;;;;14.23;11.30;;;10.90;42.00;;;13.12;34.64;100026.91;4903443;28;124894;-91
2022/03/23 09:13:00;;;;;;;19.40;12.90;;;12.40;43.30;;;13.20;34.70;100026.25;4903125;28;110003;-92
2022/03/23 09:19:12;;;;;;;23.13;15.40;;;12.40;43.10;;;13.30;34.71;100021.69;4902592;28;125195;-92
2022/03/23 09:22:16;;;;;;;28.60;15.07;;;12.50;43.00;;;13.34;34.54;100019.97;4902954;28;124287;-90
2022/03/23 09:25:43;;;;;;;17.63;12.10;;;12.60;43.10;;;13.42;34.66;100024.84;4885844;28;107136;-86
2022/03/23 09:28:11;;;;;;;18.50;12.37;;;13.60;44.10;;;13.51;34.72;100022.19;4899240;28;110810;-93
2022/03/23 09:30:59;;;;;;;15.70;11.50;;;14.50;45.20;;;13.61;34.43;100020.09;4899315;28;124988;-94
2022/03/23 09:33:27;;;;;;;17.10;12.87;;;12.80;43.20;;;13.70;34.37;100020.22;4891147;28;124676;-87
2022/03/23 09:39:37;;;;;;;17.73;12.30;;;13.10;42.90;;;13.94;34.16;100025.63;4904501;28;110186;-92
2022/03/23 09:42:43;;;;;;;19.23;13.20;;;13.10;42.80;;;14.04;33.66;100021.88;4901772;28;124282;-94
2022/03/23 09:45:47;;;;;;;19.30;14.37;;;13.30;42.40;;;14.13;33.38;100012.53;4903604;28;124223;-93
2022/03/23 09:48:53;;;;;;;18.67;14.00;;;13.40;41.90;;;14.22;33.46;100017.38;4901458;28;109822;-94
2022/03/23 09:51:21;;;;;;;17.53;13.17;;;13.40;41.90;;;14.30;33.05;100008.31;4901001;28;109663;-92
2022/03/23 09:54:27;;;;;;;21.87;14.27;;;13.50;42.00;;;14.38;32.83;100002.03;4896487;28;124865;-94
2022/03/23 09:56:56;;;;;;;16.50;13.63;;;13.70;41.30;;;14.48;32.36;100007.41;4883573;28;122845;-93
2022/03/23 10:03:16;;;;;;;14.57;9.87;;;13.90;40.80;;;14.67;32.17;100004.56;4899707;28;110967;-92
2022/03/23 10:06:37;;;;;;;12.73;10.33;;;14.00;40.60;;;14.76;31.85;100007.41;4906612;28;122319;-92
2022/03/23 10:09:40;;;;;;;16.53;10.20;;;14.00;40.00;;;14.85;31.33;100005.53;4886174;28;122920;-93
2022/03/23 10:12:45;;;;;;;13.47;10.83;;;14.10;39.60;;;14.93;31.12;100001.22;4897069;28;109193;-93
2022/03/23 10:15:51;;;;;;;11.27;8.60;;;14.20;39.10;;;14.99;30.90;99998.00;4894985;28;109814;-94
2022/03/23 10:18:59;;;;;;;11.03;9.13;;;14.30;39.00;;;15.09;29.80;99996.13;4889598;28;123442;-93
2022/03/23 10:21:39;;;;;;;14.83;10.47;;;14.30;37.50;;;15.19;29.50;100001.47;4889062;28;123403;-94
2022/03/23 10:24:44;;;;;;;11.47;9.93;;;14.40;37.20;;;15.28;29.09;99995.97;4893734;28;108728;-93
2022/03/23 10:28:08;;;;;;;12.17;9.10;;;14.60;36.10;;;15.37;28.87;99985.75;4891788;28;108758;-94
2022/03/23 10:30:54;;;;;;;12.17;9.20;;;14.70;36.00;;;15.50;28.88;99996.00;4895046;28;123460;-93
2022/03/23 10:40:49;;;;;;;10.30;7.77;;;15.00;35.40;;;15.86;27.42;99968.06;4875588;29;110129;-94
2022/03/23 10:43:35;;;;;;;9.93;8.27;;;15.10;33.90;;;15.97;27.30;99973.38;4867202;29;123495;-92
2022/03/23 10:46:40;;;;;;;12.10;8.50;;;15.20;33.90;;;16.07;26.88;99961.97;4865017;29;123004;-93
2022/03/23 10:49:46;;;;;;;11.30;8.70;;;15.40;33.40;;;16.21;26.48;99968.25;4869681;29;109974;-94
2022/03/23 10:52:16;;;;;;;9.07;7.67;;;15.50;32.90;;;16.34;26.26;99966.50;4864053;29;109104;-92
2022/03/23 10:58:26;;;;;;;9.27;8.20;;;15.70;32.30;;;16.63;26.13;99952.00;4879599;28;124303;-93
2022/03/23 11:04:43;;;;;;;11.63;8.93;;;16.00;31.70;;;16.90;24.72;99944.50;4871746;29;109459;-94
2022/03/23 11:07:29;;;;;;;11.00;8.13;;;16.20;30.80;;;17.06;24.71;99948.47;4858792;29;122287;-93
2022/03/23 11:16:34;;;;;;;10.30;8.30;;;16.60;30.30;;;17.52;23.62;99930.22;4870081;29;108976;-94
2022/03/23 11:19:26;;;;;;;11.57;8.93;;;16.80;29.50;;;17.64;22.94;99935.91;4849166;29;123429;-93
2022/03/23 11:22:11;;;;;;;9.80;7.30;;;16.90;28.80;;;17.81;23.08;99934.25;4867528;29;123172;-92
2022/03/23 11:25:16;;;;;;;9.00;8.10;;;17.10;29.00;;;17.95;23.14;99926.50;4864930;28;109077;-92
2022/03/23 11:27:44;;;;;;;8.97;7.70;;;17.30;28.90;;;18.13;22.81;99929.22;4863150;29;109389;-92
2022/03/23 11:30:50;;;;;;;10.73;8.63;;;17.40;29.00;;;18.21;21.59;99922.78;4866517;29;123776;-93
2022/03/23 11:33:38;;;;;;;8.93;7.90;;;17.50;27.10;;;18.35;21.63;99919.75;4860148;28;123338;-94
2022/03/23 11:36:27;;;;;;;9.50;6.67;;;17.70;27.70;;;18.48;22.00;99918.69;4880396;28;108728;-94
2022/03/23 11:39:15;;;;;;;8.70;6.50;;;17.80;27.80;;;18.63;22.09;99911.69;4880579;28;108089;-93
2022/03/23 11:41:43;;;;;;;8.53;7.27;;;17.90;28.00;;;18.77;21.85;99907.50;4881338;28;123384;-92
2022/03/23 11:44:16;;;;;;;10.27;7.03;;;18.10;28.00;;;18.90;21.51;99910.38;4881025;28;124293;-93
2022/03/23 11:51:22;;;;;;;9.83;7.90;;;18.30;27.00;;;19.25;21.21;99896.09;4886477;28;109994;-94
2022/03/23 11:54:16;;;;;;;7.73;6.93;;;18.50;27.20;;;19.41;20.98;99894.28;4885494;28;124793;-93
2022/03/23 11:57:40;;;;;;;7.50;6.70;;;18.60;26.90;;;19.56;20.91;99895.63;4879245;28;123210;-93
2022/03/23 12:00:18;;;;;;;8.27;7.40;;;18.80;26.70;;;19.67;20.24;99891.25;4881635;28;108455;-93
2022/03/23 12:02:46;;;;;;;13.60;6.97;;;19.00;26.30;;;19.78;20.46;99886.00;4886390;28;107998;-93
2022/03/23 12:05:51;;;;;;;8.10;6.70;;;19.00;26.50;;;19.91;20.28;99884.00;4884338;28;124616;-94
2022/03/23 12:09:16;;;;;;;7.30;6.23;;;19.20;26.50;;;20.03;19.96;99882.03;4883503;28;123015;-94
2022/03/23 12:11:45;;;;;;;7.63;6.30;;;19.40;26.10;;;20.19;19.93;99867.34;4883561;28;108966;-93
2022/03/23 12:14:28;;;;;;;6.67;5.97;;;19.50;25.90;;;20.34;19.48;99874.22;4885663;28;108359;-94
2022/03/23 12:16:55;;;;;;;9.03;7.70;;;19.60;25.60;;;20.44;18.90;99868.13;4864353;28;123591;-94
2022/03/23 12:19:28;;;;;;;6.23;5.60;;;19.70;24.90;;;20.57;19.35;99860.53;4880967;28;123006;-94
2022/03/23 12:22:15;;;;;;;6.63;5.43;;;19.80;25.40;;;20.72;19.21;99859.81;4884374;28;109216;-94
2022/03/23 12:24:54;;;;;;;6.27;5.33;;;20.00;25.40;;;20.85;19.40;99849.38;4883836;28;109467;-93
2022/03/23 12:27:41;;;;;;;11.03;6.50;;;20.20;25.50;;;21.00;18.35;99848.59;4873490;28;123652;-94
2022/03/23 12:30:32;;;;;;;10.00;7.57;;;20.20;24.40;;;21.05;17.79;99847.53;4881977;28;123115;-94
2022/03/23 12:33:07;;;;;;;10.10;6.90;;;20.30;23.40;;;21.15;18.20;99836.59;4882604;28;107799;-92
2022/03/23 12:35:35;;;;;;;10.33;7.63;;;20.40;23.80;;;21.31;17.86;99841.44;4880382;28;108342;-93
2022/03/23 12:38:05;;;;;;;7.77;6.97;;;20.60;23.90;;;21.47;17.95;99833.09;4875171;28;124122;-93
2022/03/23 12:40:43;;;;;;;7.33;6.37;;;20.70;24.20;;;21.67;18.33;99836.81;4866948;28;123826;-92
2022/03/23 12:43:46;;;;;;;8.30;6.70;;;20.90;24.40;;;21.82;18.30;99836.00;4877005;28;109405;-92
2022/03/23 12:46:26;;;;;;;5.73;5.13;;;21.00;24.10;;;21.95;18.01;99829.13;4863179;28;109228;-93
2022/03/23 12:57:50;;;;;;;10.30;8.63;;;21.50;22.70;;;22.32;17.08;99817.53;4872915;28;109813;-93
2022/03/23 13:00:33;;;;;;;7.53;6.73;;;21.60;22.80;;;22.48;17.40;99812.69;4864371;28;123237;-93
2022/03/23 13:03:06;;;;;;;9.97;7.80;;;21.80;24.00;;;22.65;16.88;99819.09;4874804;28;123871;-92
2022/03/23 13:05:36;;;;;;;7.93;6.87;;;21.90;23.30;;;22.81;17.18;99814.22;4876231;28;108277;-93
2022/03/23 13:08:33;;;;;;;8.20;7.37;;;22.10;23.70;;;22.91;16.43;99816.41;4875550;28;109007;-93
2022/03/23 13:11:10;;;;;;;8.23;6.83;;;22.20;22.70;;;23.02;16.71;99810.22;4887632;28;124200;-92
2022/03/23 13:14:36;;;;;;;7.10;5.97;;;22.30;23.00;;;23.16;17.10;99807.72;4891498;28;123323;-93
2022/03/23 13:17:05;;;;;;;6.80;4.90;;;22.40;23.30;;;23.38;17.08;99809.75;4895073;28;108920;-91
2022/03/23 13:19:32;;;;;;;5.87;5.37;;;22.60;23.70;;;23.57;16.93;99796.78;4893402;28;109046;-93
2022/03/23 13:22:00;;;;;;;5.43;4.70;;;22.50;23.20;;;23.70;17.08;99798.22;4882661;28;123722;-92
2022/03/23 13:24:28;;;;;;;7.80;6.37;;;22.90;23.60;;;23.82;16.26;99797.25;4881716;28;123548;-94
2022/03/23 13:27:13;;;;;;;8.50;7.47;;;23.00;22.80;;;23.89;15.83;99797.38;4882404;28;108840;-92
2022/03/23 13:30:18;;;;;;;9.77;7.97;;;23.10;21.80;;;23.89;15.42;99794.53;4884705;28;109431;-94
2022/03/23 13:32:50;;;;;;;6.00;5.17;;;23.20;21.30;;;23.99;16.11;99781.78;4897228;28;124774;-92
2022/03/23 13:35:21;;;;;;;7.47;6.57;;;23.20;22.40;;;24.18;15.45;99787.34;4898903;28;123697;-92
2022/03/23 13:38:00;;;;;;;9.13;7.90;;;23.40;21.70;;;24.31;14.95;99787.91;4896328;28;109412;-92
2022/03/23 13:43:19;;;;;;;7.80;6.37;;;23.50;21.20;;;24.40;15.80;99777.16;4900945;28;124618;-93
2022/03/23 13:45:56;;;;;;;5.30;4.80;;;23.60;21.70;;;24.60;15.73;99768.56;4887226;28;123482;-92
2022/03/23 13:48:26;;;;;;;7.03;6.07;;;23.80;22.30;;;24.83;15.35;99768.47;4876100;28;109607;-92
2022/03/23 13:50:55;;;;;;;5.07;4.37;;;24.00;22.00;;;25.01;15.83;99758.19;4875890;28;108373;-93
2022/03/23 13:53:23;;;;;;;10.40;6.30;;;24.20;22.70;;;25.19;15.12;99761.22;4859817;28;123274;-92
2022/03/23 13:55:55;;;;;;;9.50;6.70;;;24.30;21.60;;;25.31;15.32;99760.97;4877237;28;123827;-93
2022/03/23 13:58:29;;;;;;;9.53;6.40;;;24.50;22.30;;;25.37;15.11;99760.59;4860882;28;109392;-93
2022/03/23 14:00:57;;;;;;;5.57;4.97;;;24.60;21.80;;;25.39;15.44;99750.53;4862617;28;108876;-92
2022/03/23 14:03:31;;;;;;;5.80;4.70;;;24.70;21.90;;;25.54;15.05;99751.47;4878542;28;124231;-90
2022/03/23 14:06:08;;;;;;;4.43;3.87;;;24.80;22.10;;;25.71;15.26;99753.66;4887469;28;123835;-95
2022/03/23 14:08:52;;;;;;;6.70;6.00;;;24.90;22.30;;;25.92;14.83;99741.69;4889324;28;109350;-93
2022/03/23 14:14:24;;;;;;;4.50;4.10;;;25.20;21.70;;;26.15;15.08;99735.78;4874812;28;124181;-94
2022/03/23 14:17:18;;;;;;;4.53;3.93;;;25.30;22.20;;;26.38;15.31;99738.34;4880398;28;123532;-95
2022/03/23 14:19:48;;;;;;;6.53;4.90;;;25.50;22.10;;;26.58;15.03;99736.03;4869604;28;108638;-93
2022/03/23 14:22:26;;;;;;;4.50;4.00;;;25.70;21.90;;;26.67;15.10;99735.66;4859740;28;109432;-93
2022/03/23 14:24:58;;;;;;;4.40;4.00;;;25.80;21.70;;;26.80;15.33;99736.13;4861794;28;122817;-93
2022/03/23 14:27:36;;;;;;;8.03;5.23;;;26.00;22.10;;;26.88;14.82;99738.56;4876139;28;123759;-92
2022/03/23 14:30:08;;;;;;;4.20;3.77;;;26.10;21.40;;;26.99;14.67;99730.09;4877665;28;109600;-94
2022/03/23 14:32:58;;;;;;;5.67;5.07;;;26.20;21.70;;;27.08;14.84;99726.88;4879423;28;109038;-94
2022/03/23 14:35:41;;;;;;;4.70;4.30;;;26.40;21.30;;;27.24;14.44;99716.03;4878679;28;123973;-92
2022/03/23 14:38:12;;;;;;;5.23;4.40;;;26.50;21.50;;;27.43;14.68;99719.66;4880948;28;124111;-92
2022/03/23 14:40:57;;;;;;;6.07;4.17;;;26.60;21.30;;;27.59;14.40;99707.91;4876405;28;108918;-91
2022/03/23 14:43:35;;;;;;;4.13;3.67;;;26.80;21.40;;;27.73;14.35;99708.72;4877276;28;109125;-90
2022/03/23 14:46:24;;;;;;;3.50;2.90;;;26.90;21.50;;;27.93;14.37;99705.47;4875480;28;124575;-90
2022/03/23 14:49:11;;;;;;;3.53;3.23;;;27.10;21.50;;;28.06;14.64;99703.84;4874889;28;122647;-94
2022/03/23 14:51:40;;;;;;;4.13;3.40;;;27.30;21.60;;;28.18;14.60;99700.56;4878227;28;109213;-91
2022/03/23 14:54:09;;;;;;;4.73;3.70;;;27.40;21.70;;;28.27;14.34;99702.16;4876976;28;108817;-91
2022/03/23 14:56:38;;;;;;;6.00;5.37;;;27.50;21.40;;;28.30;13.76;99698.50;4877537;28;124184;-92
2022/03/23 14:59:05;;;;;;;4.80;4.30;;;27.60;20.50;;;28.32;14.09;99696.06;4879751;28;123353;-93
2022/03/23 15:01:32;;;;;;;5.57;5.00;;;27.70;20.70;;;28.29;13.68;99694.00;4848952;28;108019;-92
2022/03/23 15:03:59;;;;;;;5.97;4.20;;;27.70;20.30;;;28.26;14.17;99698.50;4879524;28;109244;-93
2022/03/23 15:14:42;;;;;;;4.83;4.43;;;27.80;20.50;;;28.41;13.55;99690.75;4882044;28;108605;-94
2022/03/23 15:17:09;;;;;;;4.90;4.00;;;27.90;20.20;;;28.46;13.66;99681.00;4876023;28;124307;-93
2022/03/23 15:19:38;;;;;;;5.83;4.63;;;27.90;20.30;;;28.46;13.29;99681.00;4859191;28;121656;-93
2022/03/23 15:22:08;;;;;;;5.33;4.57;;;27.90;19.80;;;28.44;13.33;99681.41;4877257;28;109465;-94
2022/03/23 15:24:55;;;;;;;4.43;4.03;;;27.90;19.90;;;28.45;13.61;99671.66;4863266;28;109223;-93
2022/03/23 15:27:21;;;;;;;4.60;4.00;;;28.00;19.80;;;28.49;13.44;99678.16;4876296;28;124256;-94
2022/03/23 15:29:48;;;;;;;3.97;3.40;;;28.00;20.00;;;28.55;13.67;99676.47;4877019;28;123086;-94
2022/03/23 15:32:15;;;;;;;5.60;4.10;;;28.00;20.10;;;28.58;13.35;99667.13;4863295;28;107832;-93
2022/03/23 15:34:41;;;;;;;7.00;5.50;;;28.10;19.80;;;28.54;12.75;99666.34;4876231;28;108470;-94
2022/03/23 15:37:08;;;;;;;4.80;4.23;;;28.10;18.90;;;28.46;13.09;99664.75;4859886;28;122793;-93
2022/03/23 15:39:34;;;;;;;4.30;3.90;;;28.00;19.20;;;28.50;13.08;99665.53;4860420;28;122652;-93
2022/03/23 15:42:01;;;;;;;5.70;4.73;;;28.10;19.50;;;28.53;12.69;99663.91;4876442;28;108581;-93
2022/03/23 15:44:27;;;;;;;4.37;3.93;;;28.10;18.90;;;28.47;13.00;99665.56;4880853;28;108023;-94
2022/03/23 15:46:56;;;;;;;3.67;3.20;;;28.00;19.20;;;28.48;13.21;99662.31;4865851;28;122797;-94
2022/03/23 15:49:26;;;;;;;7.77;5.90;;;28.00;19.30;;;28.48;12.24;99659.47;4884143;28;122431;-93
2022/03/23 15:52:32;;;;;;;4.87;4.47;;;28.10;18.00;;;28.26;12.85;99666.41;4863484;28;108894;-94
2022/03/23 15:55:00;;;;;;;5.83;4.63;;;28.00;18.50;;;28.27;13.13;99662.38;4881825;28;108755;-93
2022/03/23 15:57:26;;;;;;;3.60;3.30;;;27.90;18.90;;;28.34;13.26;99660.28;4878057;28;123149;-93
2022/03/23 15:59:53;;;;;;;3.30;3.00;;;27.90;19.00;;;28.41;13.21;99653.78;4865544;28;124032;-93
2022/03/23 16:02:22;;;;;;;4.30;3.50;;;27.90;19.20;;;28.45;13.28;99665.97;4863252;28;108573;-94
2022/03/23 16:05:09;;;;;;;3.50;3.20;;;28.00;19.10;;;28.47;13.17;99657.03;4876976;28;108802;-94
2022/03/23 16:07:55;;;;;;;5.37;4.70;;;28.10;19.10;;;28.42;12.75;99663.91;4865916;28;123269;-94
2022/03/23 16:10:23;;;;;;;4.87;4.10;;;28.10;18.70;;;28.41;13.04;99656.63;4860206;28;123520;-93
2022/03/23 16:12:50;;;;;;;4.47;4.07;;;28.00;18.90;;;28.40;13.13;99667.19;4862625;28;109773;-94
2022/03/23 16:15:19;;;;;;;4.23;3.53;;;28.00;18.90;;;28.40;13.17;99660.69;4854769;29;108468;-94
2022/03/23 16:18:04;;;;;;;3.20;2.90;;;28.00;18.90;;;28.46;13.22;99664.75;4880113;28;122187;-94
2022/03/23 16:21:09;;;;;;;3.60;3.30;;;28.10;19.00;;;28.46;13.11;99659.06;4860840;28;124383;-94
2022/03/23 16:23:57;;;;;;;2.60;2.40;;;28.10;19.00;;;28.50;12.93;99662.69;4879614;28;109908;-94
2022/03/23 16:26:24;;;;;;;3.20;2.90;;;28.10;19.00;;;28.53;13.22;99670.41;4877330;28;109417;-95
2022/03/23 16:28:53;;;;;;;4.23;3.70;;;28.10;19.00;;;28.55;13.08;99667.94;4874831;28;124287;-95
2022/03/23 16:31:22;;;;;;;4.10;3.63;;;28.10;19.00;;;28.54;12.62;99666.34;4877848;28;124707;-94
2022/03/23 16:33:53;;;;;;;3.60;3.20;;;28.10;18.80;;;28.44;12.91;99670.03;4865364;28;108431;-94
2022/03/23 16:36:24;;;;;;;4.23;3.50;;;28.10;18.80;;;28.36;12.79;99676.94;4866296;28;108898;-93
2022/03/23 16:38:51;;;;;;;4.93;4.43;;;28.10;18.60;;;28.24;12.72;99674.53;4876542;28;124931;-94
2022/03/23 16:41:40;;;;;;;13.70;5.70;;;28.00;18.30;;;28.06;12.82;99672.59;4869519;28;123880;-94
2022/03/23 16:45:04;;;;;;;6.47;4.97;;;27.90;17.80;;;27.83;12.48;99669.38;4877221;28;109443;-93
2022/03/23 16:47:31;;;;;;;6.90;5.53;;;27.70;18.00;;;27.55;12.54;99665.34;4885127;28;108491;-93
2022/03/23 16:49:58;;;;;;;6.10;4.87;;;27.40;17.80;;;27.33;12.54;99667.38;4891021;28;124903;-93
2022/03/23 16:52:25;;;;;;;7.83;5.17;;;27.20;18.00;;;27.16;13.12;99676.63;4861536;28;123741;-94
2022/03/23 16:54:54;;;;;;;5.50;4.67;;;27.00;18.00;;;27.00;12.79;99677.84;4871787;28;109577;-94
2022/03/23 16:57:21;;;;;;;4.27;3.90;;;26.90;18.30;;;26.92;13.53;99678.22;4873520;28;108324;-94
2022/03/23 16:59:49;;;;;;;3.50;3.20;;;26.70;18.40;;;26.83;13.48;99679.41;4879011;28;123969;-94
2022/03/23 17:02:19;;;;;;;5.07;3.80;;;26.70;18.60;;;26.72;13.62;99675.75;4858596;28;123131;-94
2022/03/23 17:13:00;;;;;;;3.70;3.40;;;26.10;18.90;;;26.12;14.08;99671.44;4888766;28;124874;-96
2022/03/23 17:15:28;;;;;;;5.90;3.97;;;26.00;19.00;;;25.97;13.74;99675.38;4864418;28;108440;-94
2022/03/23 17:17:55;;;;;;;5.03;3.47;;;25.90;19.10;;;25.81;14.12;99680.50;4883191;28;108720;-94
2022/03/23 17:20:22;;;;;;;4.73;4.03;;;25.80;19.10;;;25.61;13.70;99671.47;4880118;28;123980;-94
2022/03/23 17:23:08;;;;;;;5.57;4.27;;;25.50;19.10;;;25.39;14.01;99670.47;4867505;28;122001;-93
2022/03/23 17:25:37;;;;;;;5.73;4.00;;;25.40;19.00;;;25.22;14.22;99674.78;4870059;28;109116;-94
2022/03/23 17:28:04;;;;;;;4.40;3.80;;;25.20;19.20;;;25.08;14.70;99679.06;4883521;28;110288;-96
2022/03/23 17:30:30;;;;;;;4.60;3.80;;;25.00;19.40;;;24.94;14.53;99678.94;4869003;28;122288;-94
2022/03/23 17:33:36;;;;;;;4.40;4.00;;;24.80;19.40;;;24.69;14.73;99673.84;4863431;28;123212;-95
2022/03/23 17:36:05;;;;;;;5.60;3.90;;;24.70;19.50;;;24.51;14.47;99684.09;4882104;28;109434;-94
2022/03/23 17:38:33;;;;;;;5.43;4.23;;;24.40;19.30;;;24.30;14.65;99680.97;4871624;28;108201;-94
2022/03/23 17:41:00;;;;;;;4.47;4.07;;;24.20;19.30;;;24.09;14.93;99678.69;4867581;28;123512;-94
2022/03/23 17:43:48;;;;;;;4.90;4.07;;;24.00;19.30;;;23.87;14.74;99691.69;4878899;28;123462;-93
2022/03/23 17:46:34;;;;;;;5.67;4.10;;;23.90;19.40;;;23.68;14.86;99693.38;4885402;28;109198;-92
2022/03/23 17:49:42;;;;;;;5.50;4.23;;;23.60;19.40;;;23.46;15.24;99689.41;4887949;28;108350;-93
2022/03/23 17:52:46;;;;;;;4.90;4.40;;;23.40;19.40;;;23.24;15.09;99691.06;4892530;28;122459;-95
2022/03/23 17:55:50;;;;;;;5.17;4.17;;;23.20;19.50;;;23.02;15.19;99689.03;4897183;28;123550;-94
2022/03/23 17:58:19;;;;;;;5.07;4.13;;;23.00;19.50;;;22.87;15.17;99691.56;4893331;28;110708;-96
2022/03/23 18:00:48;;;;;;;5.00;3.90;;;22.80;19.60;;;22.72;15.63;99698.09;4880112;28;107804;-95
2022/03/23 18:03:16;;;;;;;3.90;3.50;;;22.60;19.60;;;22.60;15.52;99701.91;4886454;28;124258;-94
2022/03/23 18:10:21;;;;;;;4.67;4.27;;;22.20;19.70;;;22.17;15.99;99702.97;4894242;28;110458;-94
2022/03/23 18:17:09;;;;;;;4.17;3.77;;;21.90;20.00;;;21.78;15.95;99711.31;4886675;28;125189;-94
2022/03/23 18:19:38;;;;;;;4.30;3.90;;;21.60;20.00;;;21.67;16.21;99722.31;4893530;28;123640;-94
2022/03/23 18:22:06;;;;;;;4.60;4.07;;;21.50;20.10;;;21.57;15.86;99718.06;4896203;28;108892;-96
2022/03/23 18:24:35;;;;;;;4.47;3.60;;;21.40;20.20;;;21.49;16.43;99724.66;4896629;28;109749;-93
2022/03/23 18:27:04;;;;;;;5.93;4.50;;;21.20;20.20;;;21.39;16.15;99719.59;4892973;28;124144;-93
2022/03/23 18:29:33;;;;;;;4.97;4.47;;;21.10;20.30;;;21.31;16.24;99720.56;4879323;28;123173;-93
2022/03/23 18:35:44;;;;;;;5.77;5.17;;;21.00;20.60;;;21.04;16.65;99728.69;4892201;28;110077;-95
2022/03/23 18:38:13;;;;;;;5.00;4.07;;;20.70;20.50;;;20.95;16.77;99730.84;4896356;28;123415;-91
2022/03/23 18:40:41;;;;;;;7.63;6.07;;;20.60;20.60;;;20.83;16.77;99728.13;4885760;28;123419;-92
2022/03/23 18:43:11;;;;;;;5.27;4.30;;;20.60;20.60;;;20.72;16.93;99731.44;4885266;28;108562;-92
2022/03/23 18:45:38;;;;;;;5.13;4.40;;;20.40;20.60;;;20.66;16.94;99732.03;4890703;28;107937;-92
2022/03/23 18:48:06;;;;;;;5.70;4.67;;;20.50;20.90;;;20.58;16.84;99722.63;4890184;28;124154;-93
2022/03/23 18:50:35;;;;;;;4.60;4.20;;;20.30;21.00;;;20.50;17.24;99726.34;4890612;28;123414;-92
2022/03/23 18:53:21;;;;;;;5.60;5.10;;;20.10;21.00;;;20.42;17.13;99728.13;4892764;28;110016;-94
2022/03/23 18:56:26;;;;;;;4.77;4.13;;;20.10;21.10;;;20.33;17.23;99732.25;4886677;28;109754;-94
2022/03/23 19:07:14;;;;;;;5.10;4.60;;;19.70;21.40;;;19.88;17.64;99738.88;4891092;28;109627;-94
2022/03/23 19:13:44;;;;;;;5.43;4.50;;;19.50;21.80;;;19.60;18.04;99740.38;4897310;28;126017;-94
2022/03/23 19:16:51;;;;;;;6.00;5.03;;;19.30;21.90;;;19.50;18.24;99746.44;4893406;28;123162;-94
2022/03/23 19:23:19;;;;;;;4.93;4.40;;;19.10;22.10;;;19.26;18.46;99750.00;4884201;28;108494;-92
2022/03/23 19:25:48;;;;;;;6.27;5.00;;;19.00;22.30;;;19.20;18.63;99755.03;4873611;28;124341;-93
2022/03/23 19:28:15;;;;;;;6.57;5.20;;;18.90;22.40;;;19.14;18.73;99752.81;4877401;29;121838;-93
2022/03/23 19:30:44;;;;;;;7.10;5.33;;;18.80;22.50;;;19.07;18.76;99760.94;4896423;28;109895;-94
2022/03/23 19:34:07;;;;;;;6.20;5.57;;;18.70;22.60;;;18.96;18.90;99766.97;4895073;28;108761;-93
2022/03/23 19:36:39;;;;;;;8.27;5.17;;;18.60;22.70;;;18.88;18.94;99765.09;4892993;28;123754;-93
2022/03/23 19:39:06;;;;;;;6.00;5.40;;;18.50;22.90;;;18.82;19.04;99760.88;4890734;28;123548;-93
2022/03/23 19:45:14;;;;;;;8.60;5.20;;;18.30;23.00;;;18.67;19.11;99778.25;4898025;28;109806;-93
2022/03/23 19:47:40;;;;;;;7.80;5.23;;;18.20;23.10;;;18.62;19.32;99776.53;4894064;28;122732;-92
2022/03/23 19:50:10;;;;;;;5.67;4.93;;;18.20;23.10;;;18.58;19.48;99778.34;4891963;28;123785;-93
2022/03/23 19:52:38;;;;;;;7.87;5.93;;;18.10;23.20;;;18.52;19.47;99774.94;4884786;28;109911;-94
2022/03/23 19:55:05;;;;;;;5.97;5.37;;;18.10;23.30;;;18.47;19.72;99777.13;4884208;28;109226;-93
2022/03/23 19:57:51;;;;;;;5.57;5.07;;;18.00;23.30;;;18.40;19.57;99774.03;4885376;28;122766;-93